sensor_id;sensor_type;location;lat;lon;timestamp;P1;durP1;ratioP1;P2;durP2;ratioP2
19554;SDS011;9924;50.828;6.440;2023-07-31T00:00:34;7.18;;;3.20;;
19554;SDS011;9924;50.828;6.440;2023-07-31T00:03:00;6.90;;;3.10;;
19554;SDS011;9924;50.828;6.440;2023-07-31T00:05:26;7.80;;;3.03;;
19554;SDS011;9924;50.828;6.440;2023-07-31T00:07:52;7.00;;;2.90;;
19554;SDS011;9924;50.828;6.440;2023-07-31T00:10:19;7.22;;;2.95;;
19554;SDS011;9924;50.828;6.440;2023-07-31T00:12:45;6.60;;;2.63;;
19554;SDS011;9924;50.828;6.440;2023-07-31T00:15:10;6.57;;;2.53;;
19554;SDS011;9924;50.828;6.440;2023-07-31T00:17:38;8.30;;;2.67;;
19554;SDS011;9924;50.828;6.440;2023-07-31T00:20:04;4.53;;;2.50;;
19554;SDS011;9924;50.828;6.440;2023-07-31T00:22:31;5.90;;;2.60;;
19554;SDS011;9924;50.828;6.440;2023-07-31T00:24:57;4.88;;;2.72;;
19554;SDS011;9924;50.828;6.440;2023-07-31T00:27:22;7.78;;;3.20;;
19554;SDS011;9924;50.828;6.440;2023-07-31T00:29:48;4.38;;;2.63;;
19554;SDS011;9924;50.828;6.440;2023-07-31T00:32:15;7.28;;;2.45;;
19554;SDS011;9924;50.828;6.440;2023-07-31T00:34:41;5.25;;;2.83;;
19554;SDS011;9924;50.828;6.440;2023-07-31T00:37:06;9.20;;;3.10;;
19554;SDS011;9924;50.828;6.440;2023-07-31T00:39:33;6.43;;;2.95;;
19554;SDS011;9924;50.828;6.440;2023-07-31T00:41:59;12.98;;;3.00;;
19554;SDS011;9924;50.828;6.440;2023-07-31T00:44:25;10.50;;;2.80;;
19554;SDS011;9924;50.828;6.440;2023-07-31T00:46:51;5.93;;;2.30;;
19554;SDS011;9924;50.828;6.440;2023-07-31T00:49:17;6.50;;;2.70;;
19554;SDS011;9924;50.828;6.440;2023-07-31T00:51:43;7.78;;;2.63;;
19554;SDS011;9924;50.828;6.440;2023-07-31T00:54:09;9.48;;;3.10;;
19554;SDS011;9924;50.828;6.440;2023-07-31T00:56:36;8.80;;;2.88;;
19554;SDS011;9924;50.828;6.440;2023-07-31T00:59:02;13.38;;;4.38;;
19554;SDS011;9924;50.828;6.440;2023-07-31T01:01:28;4.80;;;3.08;;
19554;SDS011;9924;50.828;6.440;2023-07-31T01:03:54;8.45;;;2.70;;
19554;SDS011;9924;50.828;6.440;2023-07-31T01:11:52;7.82;;;2.92;;
19554;SDS011;9924;50.828;6.440;2023-07-31T01:14:21;4.82;;;2.75;;
19554;SDS011;9924;50.828;6.440;2023-07-31T01:16:47;11.60;;;3.40;;
19554;SDS011;9924;50.828;6.440;2023-07-31T01:19:18;7.32;;;3.45;;
19554;SDS011;9924;50.828;6.440;2023-07-31T01:27:51;6.93;;;3.20;;
19554;SDS011;9924;50.828;6.440;2023-07-31T01:30:25;7.03;;;3.22;;
19554;SDS011;9924;50.828;6.440;2023-07-31T01:32:53;7.53;;;3.15;;
19554;SDS011;9924;50.828;6.440;2023-07-31T01:35:21;7.57;;;2.72;;
19554;SDS011;9924;50.828;6.440;2023-07-31T01:37:47;9.48;;;3.10;;
19554;SDS011;9924;50.828;6.440;2023-07-31T01:40:13;6.97;;;2.92;;
19554;SDS011;9924;50.828;6.440;2023-07-31T01:42:39;8.00;;;3.00;;
19554;SDS011;9924;50.828;6.440;2023-07-31T01:45:04;6.10;;;2.97;;
19554;SDS011;9924;50.828;6.440;2023-07-31T01:47:31;10.57;;;3.47;;
19554;SDS011;9924;50.828;6.440;2023-07-31T01:49:56;8.57;;;2.97;;
19554;SDS011;9924;50.828;6.440;2023-07-31T01:52:22;11.45;;;3.72;;
19554;SDS011;9924;50.828;6.440;2023-07-31T01:54:48;5.45;;;3.15;;
19554;SDS011;9924;50.828;6.440;2023-07-31T01:57:13;9.60;;;3.13;;
19554;SDS011;9924;50.828;6.440;2023-07-31T01:59:40;10.77;;;3.15;;
19554;SDS011;9924;50.828;6.440;2023-07-31T02:02:06;7.15;;;3.05;;
19554;SDS011;9924;50.828;6.440;2023-07-31T02:04:32;12.02;;;3.55;;
19554;SDS011;9924;50.828;6.440;2023-07-31T02:06:59;8.45;;;3.25;;
19554;SDS011;9924;50.828;6.440;2023-07-31T02:09:25;7.05;;;3.75;;
19554;SDS011;9924;50.828;6.440;2023-07-31T02:11:51;10.75;;;3.00;;
19554;SDS011;9924;50.828;6.440;2023-07-31T02:14:17;8.80;;;3.13;;
19554;SDS011;9924;50.828;6.440;2023-07-31T02:16:43;10.32;;;3.58;;
19554;SDS011;9924;50.828;6.440;2023-07-31T02:19:09;6.85;;;3.17;;
19554;SDS011;9924;50.828;6.440;2023-07-31T02:21:36;9.60;;;3.55;;
19554;SDS011;9924;50.828;6.440;2023-07-31T02:24:02;8.70;;;3.15;;
19554;SDS011;9924;50.828;6.440;2023-07-31T02:26:29;9.45;;;3.17;;
19554;SDS011;9924;50.828;6.440;2023-07-31T02:28:55;9.07;;;3.22;;
19554;SDS011;9924;50.828;6.440;2023-07-31T02:31:21;10.30;;;3.70;;
19554;SDS011;9924;50.828;6.440;2023-07-31T02:33:47;9.98;;;4.03;;
19554;SDS011;9924;50.828;6.440;2023-07-31T02:36:13;8.85;;;3.25;;
19554;SDS011;9924;50.828;6.440;2023-07-31T02:38:39;11.38;;;3.55;;
19554;SDS011;9924;50.828;6.440;2023-07-31T02:41:06;13.88;;;3.90;;
19554;SDS011;9924;50.828;6.440;2023-07-31T02:43:32;11.50;;;3.60;;
19554;SDS011;9924;50.828;6.440;2023-07-31T02:45:59;7.72;;;2.83;;
19554;SDS011;9924;50.828;6.440;2023-07-31T02:48:24;9.40;;;3.25;;
19554;SDS011;9924;50.828;6.440;2023-07-31T02:50:50;8.27;;;3.42;;
19554;SDS011;9924;50.828;6.440;2023-07-31T02:53:16;7.03;;;3.20;;
19554;SDS011;9924;50.828;6.440;2023-07-31T02:55:42;10.63;;;3.60;;
19554;SDS011;9924;50.828;6.440;2023-07-31T02:58:08;9.90;;;3.53;;
19554;SDS011;9924;50.828;6.440;2023-07-31T03:00:34;10.77;;;2.97;;
19554;SDS011;9924;50.828;6.440;2023-07-31T03:03:00;7.82;;;2.90;;
19554;SDS011;9924;50.828;6.440;2023-07-31T03:05:26;6.65;;;3.38;;
19554;SDS011;9924;50.828;6.440;2023-07-31T03:07:52;8.55;;;3.25;;
19554;SDS011;9924;50.828;6.440;2023-07-31T03:10:17;7.75;;;3.10;;
19554;SDS011;9924;50.828;6.440;2023-07-31T03:12:45;8.73;;;3.33;;
19554;SDS011;9924;50.828;6.440;2023-07-31T03:15:12;5.20;;;3.28;;
19554;SDS011;9924;50.828;6.440;2023-07-31T03:17:38;8.82;;;3.60;;
19554;SDS011;9924;50.828;6.440;2023-07-31T03:20:04;9.60;;;4.13;;
19554;SDS011;9924;50.828;6.440;2023-07-31T03:22:30;10.52;;;3.15;;
19554;SDS011;9924;50.828;6.440;2023-07-31T03:24:55;9.07;;;3.47;;
19554;SDS011;9924;50.828;6.440;2023-07-31T03:27:21;11.27;;;3.63;;
19554;SDS011;9924;50.828;6.440;2023-07-31T03:29:47;10.20;;;4.32;;
19554;SDS011;9924;50.828;6.440;2023-07-31T03:32:14;7.38;;;3.65;;
19554;SDS011;9924;50.828;6.440;2023-07-31T03:34:40;9.10;;;3.53;;
19554;SDS011;9924;50.828;6.440;2023-07-31T03:37:06;10.52;;;3.80;;
19554;SDS011;9924;50.828;6.440;2023-07-31T03:39:31;8.50;;;3.40;;
19554;SDS011;9924;50.828;6.440;2023-07-31T03:41:57;10.30;;;3.90;;
19554;SDS011;9924;50.828;6.440;2023-07-31T03:44:23;9.63;;;3.80;;
19554;SDS011;9924;50.828;6.440;2023-07-31T03:46:50;10.07;;;3.90;;
19554;SDS011;9924;50.828;6.440;2023-07-31T03:49:15;9.80;;;3.90;;
19554;SDS011;9924;50.828;6.440;2023-07-31T03:51:41;10.90;;;3.72;;
19554;SDS011;9924;50.828;6.440;2023-07-31T03:54:07;8.20;;;3.90;;
19554;SDS011;9924;50.828;6.440;2023-07-31T03:56:33;5.32;;;3.60;;
19554;SDS011;9924;50.828;6.440;2023-07-31T03:58:58;11.02;;;3.70;;
19554;SDS011;9924;50.828;6.440;2023-07-31T04:01:25;7.88;;;3.78;;
19554;SDS011;9924;50.828;6.440;2023-07-31T04:03:51;5.63;;;3.20;;
19554;SDS011;9924;50.828;6.440;2023-07-31T04:06:17;6.25;;;3.33;;
19554;SDS011;9924;50.828;6.440;2023-07-31T04:08:43;6.45;;;3.50;;
19554;SDS011;9924;50.828;6.440;2023-07-31T04:11:10;11.90;;;3.47;;
19554;SDS011;9924;50.828;6.440;2023-07-31T04:13:37;8.77;;;3.25;;
19554;SDS011;9924;50.828;6.440;2023-07-31T04:16:03;7.57;;;3.40;;
19554;SDS011;9924;50.828;6.440;2023-07-31T04:18:29;5.70;;;3.45;;
19554;SDS011;9924;50.828;6.440;2023-07-31T04:20:56;10.20;;;3.58;;
19554;SDS011;9924;50.828;6.440;2023-07-31T04:23:23;5.47;;;3.35;;
19554;SDS011;9924;50.828;6.440;2023-07-31T04:25:52;10.05;;;4.20;;
19554;SDS011;9924;50.828;6.440;2023-07-31T04:28:18;6.68;;;3.22;;
19554;SDS011;9924;50.828;6.440;2023-07-31T04:30:45;7.18;;;3.42;;
19554;SDS011;9924;50.828;6.440;2023-07-31T04:33:11;11.57;;;3.78;;
19554;SDS011;9924;50.828;6.440;2023-07-31T04:35:37;6.63;;;3.45;;
19554;SDS011;9924;50.828;6.440;2023-07-31T04:38:03;7.72;;;3.20;;
19554;SDS011;9924;50.828;6.440;2023-07-31T04:40:28;5.75;;;2.90;;
19554;SDS011;9924;50.828;6.440;2023-07-31T04:42:54;10.27;;;3.50;;
19554;SDS011;9924;50.828;6.440;2023-07-31T04:45:20;9.55;;;3.67;;
19554;SDS011;9924;50.828;6.440;2023-07-31T04:47:45;7.80;;;3.45;;
19554;SDS011;9924;50.828;6.440;2023-07-31T04:50:11;6.72;;;3.28;;
19554;SDS011;9924;50.828;6.440;2023-07-31T04:52:38;8.38;;;3.40;;
19554;SDS011;9924;50.828;6.440;2023-07-31T04:55:04;7.38;;;3.10;;
19554;SDS011;9924;50.828;6.440;2023-07-31T04:57:30;5.55;;;2.88;;
19554;SDS011;9924;50.828;6.440;2023-07-31T04:59:55;6.53;;;3.10;;
19554;SDS011;9924;50.828;6.440;2023-07-31T05:02:21;7.07;;;3.08;;
19554;SDS011;9924;50.828;6.440;2023-07-31T05:04:47;5.68;;;3.30;;
19554;SDS011;9924;50.828;6.440;2023-07-31T05:07:13;6.40;;;3.20;;
19554;SDS011;9924;50.828;6.440;2023-07-31T05:09:38;7.43;;;3.03;;
19554;SDS011;9924;50.828;6.440;2023-07-31T05:12:05;7.40;;;3.22;;
19554;SDS011;9924;50.828;6.440;2023-07-31T05:14:31;7.82;;;3.08;;
19554;SDS011;9924;50.828;6.440;2023-07-31T05:16:56;6.35;;;3.03;;
19554;SDS011;9924;50.828;6.440;2023-07-31T05:19:22;7.30;;;3.40;;
19554;SDS011;9924;50.828;6.440;2023-07-31T05:21:48;6.63;;;3.00;;
19554;SDS011;9924;50.828;6.440;2023-07-31T05:24:14;5.50;;;2.40;;
19554;SDS011;9924;50.828;6.440;2023-07-31T05:26:40;4.53;;;2.45;;
19554;SDS011;9924;50.828;6.440;2023-07-31T05:29:05;6.63;;;3.35;;
19554;SDS011;9924;50.828;6.440;2023-07-31T05:31:31;10.48;;;2.70;;
19554;SDS011;9924;50.828;6.440;2023-07-31T05:33:57;11.75;;;3.35;;
19554;SDS011;9924;50.828;6.440;2023-07-31T05:36:23;7.15;;;3.25;;
19554;SDS011;9924;50.828;6.440;2023-07-31T05:38:50;7.55;;;2.83;;
19554;SDS011;9924;50.828;6.440;2023-07-31T05:41:16;6.95;;;2.75;;
19554;SDS011;9924;50.828;6.440;2023-07-31T05:43:43;10.07;;;3.45;;
19554;SDS011;9924;50.828;6.440;2023-07-31T05:46:09;7.50;;;3.00;;
19554;SDS011;9924;50.828;6.440;2023-07-31T05:48:35;7.90;;;3.25;;
19554;SDS011;9924;50.828;6.440;2023-07-31T05:51:00;6.80;;;2.85;;
19554;SDS011;9924;50.828;6.440;2023-07-31T05:53:26;10.98;;;4.18;;
19554;SDS011;9924;50.828;6.440;2023-07-31T05:55:52;8.35;;;3.33;;
19554;SDS011;9924;50.828;6.440;2023-07-31T05:58:17;8.05;;;3.42;;
19554;SDS011;9924;50.828;6.440;2023-07-31T06:00:43;10.38;;;3.40;;
19554;SDS011;9924;50.828;6.440;2023-07-31T06:03:09;11.13;;;3.70;;
19554;SDS011;9924;50.828;6.440;2023-07-31T06:05:35;7.70;;;3.30;;
19554;SDS011;9924;50.828;6.440;2023-07-31T06:08:01;8.02;;;3.30;;
19554;SDS011;9924;50.828;6.440;2023-07-31T06:10:27;8.18;;;3.60;;
19554;SDS011;9924;50.828;6.440;2023-07-31T06:12:55;6.75;;;3.20;;
19554;SDS011;9924;50.828;6.440;2023-07-31T06:15:22;8.57;;;3.30;;
19554;SDS011;9924;50.828;6.440;2023-07-31T06:17:49;9.45;;;2.88;;
19554;SDS011;9924;50.828;6.440;2023-07-31T06:20:15;8.68;;;3.13;;
19554;SDS011;9924;50.828;6.440;2023-07-31T06:22:41;6.35;;;2.92;;
19554;SDS011;9924;50.828;6.440;2023-07-31T06:25:06;5.00;;;3.20;;
19554;SDS011;9924;50.828;6.440;2023-07-31T06:27:33;7.22;;;2.92;;
19554;SDS011;9924;50.828;6.440;2023-07-31T06:30:00;10.50;;;3.25;;
19554;SDS011;9924;50.828;6.440;2023-07-31T06:32:26;6.55;;;3.38;;
19554;SDS011;9924;50.828;6.440;2023-07-31T06:34:52;6.22;;;3.05;;
19554;SDS011;9924;50.828;6.440;2023-07-31T06:37:19;6.00;;;2.95;;
19554;SDS011;9924;50.828;6.440;2023-07-31T06:39:44;6.15;;;2.97;;
19554;SDS011;9924;50.828;6.440;2023-07-31T06:42:10;6.63;;;3.03;;
19554;SDS011;9924;50.828;6.440;2023-07-31T06:44:36;7.25;;;2.88;;
19554;SDS011;9924;50.828;6.440;2023-07-31T06:47:02;7.78;;;3.15;;
19554;SDS011;9924;50.828;6.440;2023-07-31T06:49:28;8.13;;;2.83;;
19554;SDS011;9924;50.828;6.440;2023-07-31T06:51:54;5.32;;;2.60;;
19554;SDS011;9924;50.828;6.440;2023-07-31T06:54:19;8.00;;;2.70;;
19554;SDS011;9924;50.828;6.440;2023-07-31T06:56:45;6.72;;;2.90;;
19554;SDS011;9924;50.828;6.440;2023-07-31T06:59:11;6.85;;;3.03;;
19554;SDS011;9924;50.828;6.440;2023-07-31T07:01:36;7.15;;;2.70;;
19554;SDS011;9924;50.828;6.440;2023-07-31T07:04:02;6.53;;;2.80;;
19554;SDS011;9924;50.828;6.440;2023-07-31T07:06:29;6.43;;;2.88;;
19554;SDS011;9924;50.828;6.440;2023-07-31T07:08:55;10.00;;;2.83;;
19554;SDS011;9924;50.828;6.440;2023-07-31T07:11:20;7.68;;;2.67;;
19554;SDS011;9924;50.828;6.440;2023-07-31T07:13:46;6.50;;;2.90;;
19554;SDS011;9924;50.828;6.440;2023-07-31T07:16:12;7.50;;;3.00;;
19554;SDS011;9924;50.828;6.440;2023-07-31T07:18:38;6.00;;;2.90;;
19554;SDS011;9924;50.828;6.440;2023-07-31T07:21:04;6.95;;;2.78;;
19554;SDS011;9924;50.828;6.440;2023-07-31T07:23:29;8.30;;;2.85;;
19554;SDS011;9924;50.828;6.440;2023-07-31T07:25:55;6.80;;;2.58;;
19554;SDS011;9924;50.828;6.440;2023-07-31T07:28:21;7.15;;;2.75;;
19554;SDS011;9924;50.828;6.440;2023-07-31T07:30:50;12.18;;;2.90;;
19554;SDS011;9924;50.828;6.440;2023-07-31T07:33:19;7.68;;;3.22;;
19554;SDS011;9924;50.828;6.440;2023-07-31T07:35:45;6.78;;;2.75;;
19554;SDS011;9924;50.828;6.440;2023-07-31T07:38:11;6.10;;;2.60;;
19554;SDS011;9924;50.828;6.440;2023-07-31T07:40:40;6.60;;;2.80;;
19554;SDS011;9924;50.828;6.440;2023-07-31T07:43:06;8.48;;;2.80;;
19554;SDS011;9924;50.828;6.440;2023-07-31T07:45:32;4.90;;;2.47;;
19554;SDS011;9924;50.828;6.440;2023-07-31T07:47:57;4.93;;;2.55;;
19554;SDS011;9924;50.828;6.440;2023-07-31T07:50:25;6.10;;;2.22;;
19554;SDS011;9924;50.828;6.440;2023-07-31T07:52:50;4.30;;;2.45;;
19554;SDS011;9924;50.828;6.440;2023-07-31T07:55:16;4.53;;;2.42;;
19554;SDS011;9924;50.828;6.440;2023-07-31T07:57:42;6.57;;;2.33;;
19554;SDS011;9924;50.828;6.440;2023-07-31T08:00:09;5.28;;;2.42;;
19554;SDS011;9924;50.828;6.440;2023-07-31T08:02:37;6.38;;;2.63;;
19554;SDS011;9924;50.828;6.440;2023-07-31T08:05:02;4.65;;;2.83;;
19554;SDS011;9924;50.828;6.440;2023-07-31T08:07:28;5.85;;;2.30;;
19554;SDS011;9924;50.828;6.440;2023-07-31T08:09:54;3.55;;;2.28;;
19554;SDS011;9924;50.828;6.440;2023-07-31T08:12:20;4.85;;;2.45;;
19554;SDS011;9924;50.828;6.440;2023-07-31T08:14:46;4.18;;;2.70;;
19554;SDS011;9924;50.828;6.440;2023-07-31T08:17:11;5.05;;;2.35;;
19554;SDS011;9924;50.828;6.440;2023-07-31T08:19:37;4.68;;;2.05;;
19554;SDS011;9924;50.828;6.440;2023-07-31T08:22:03;3.85;;;2.05;;
19554;SDS011;9924;50.828;6.440;2023-07-31T08:24:28;3.58;;;2.00;;
19554;SDS011;9924;50.828;6.440;2023-07-31T08:26:55;6.13;;;2.05;;
19554;SDS011;9924;50.828;6.440;2023-07-31T08:29:21;3.15;;;2.00;;
19554;SDS011;9924;50.828;6.440;2023-07-31T08:31:47;4.50;;;2.35;;
19554;SDS011;9924;50.828;6.440;2023-07-31T08:34:13;3.75;;;1.83;;
19554;SDS011;9924;50.828;6.440;2023-07-31T08:36:38;7.82;;;2.35;;
19554;SDS011;9924;50.828;6.440;2023-07-31T08:39:04;3.80;;;2.15;;
19554;SDS011;9924;50.828;6.440;2023-07-31T08:41:30;3.67;;;1.95;;
19554;SDS011;9924;50.828;6.440;2023-07-31T08:43:56;5.05;;;1.90;;
19554;SDS011;9924;50.828;6.440;2023-07-31T08:46:23;8.07;;;2.40;;
19554;SDS011;9924;50.828;6.440;2023-07-31T08:48:50;4.00;;;2.38;;
19554;SDS011;9924;50.828;6.440;2023-07-31T08:51:17;3.67;;;2.28;;
19554;SDS011;9924;50.828;6.440;2023-07-31T08:53:44;4.00;;;1.85;;
19554;SDS011;9924;50.828;6.440;2023-07-31T08:56:11;5.13;;;2.03;;
19554;SDS011;9924;50.828;6.440;2023-07-31T08:58:38;7.35;;;2.42;;
19554;SDS011;9924;50.828;6.440;2023-07-31T09:01:05;4.97;;;1.95;;
19554;SDS011;9924;50.828;6.440;2023-07-31T09:03:34;5.03;;;2.20;;
19554;SDS011;9924;50.828;6.440;2023-07-31T09:06:00;5.70;;;2.17;;
19554;SDS011;9924;50.828;6.440;2023-07-31T09:08:30;7.00;;;2.10;;
19554;SDS011;9924;50.828;6.440;2023-07-31T09:11:01;5.38;;;2.00;;
19554;SDS011;9924;50.828;6.440;2023-07-31T09:13:31;8.05;;;2.60;;
19554;SDS011;9924;50.828;6.440;2023-07-31T09:15:57;4.45;;;2.17;;
19554;SDS011;9924;50.828;6.440;2023-07-31T09:18:24;5.43;;;1.90;;
19554;SDS011;9924;50.828;6.440;2023-07-31T09:21:05;6.50;;;2.47;;
19554;SDS011;9924;50.828;6.440;2023-07-31T09:23:46;4.30;;;2.05;;
19554;SDS011;9924;50.828;6.440;2023-07-31T09:26:33;7.03;;;1.95;;
19554;SDS011;9924;50.828;6.440;2023-07-31T09:29:00;4.38;;;1.67;;
19554;SDS011;9924;50.828;6.440;2023-07-31T09:31:41;5.40;;;2.70;;
19554;SDS011;9924;50.828;6.440;2023-07-31T09:34:08;4.57;;;2.03;;
19554;SDS011;9924;50.828;6.440;2023-07-31T09:36:41;5.22;;;2.15;;
19554;SDS011;9924;50.828;6.440;2023-07-31T09:39:11;3.83;;;2.00;;
19554;SDS011;9924;50.828;6.440;2023-07-31T09:41:39;3.75;;;2.05;;
19554;SDS011;9924;50.828;6.440;2023-07-31T09:44:06;5.97;;;2.35;;
19554;SDS011;9924;50.828;6.440;2023-07-31T09:46:32;6.22;;;2.40;;
19554;SDS011;9924;50.828;6.440;2023-07-31T09:49:07;5.47;;;2.38;;
19554;SDS011;9924;50.828;6.440;2023-07-31T09:51:34;4.68;;;2.13;;
19554;SDS011;9924;50.828;6.440;2023-07-31T09:54:21;7.38;;;2.50;;
19554;SDS011;9924;50.828;6.440;2023-07-31T09:56:48;5.35;;;2.20;;
19554;SDS011;9924;50.828;6.440;2023-07-31T09:59:17;5.28;;;2.20;;
19554;SDS011;9924;50.828;6.440;2023-07-31T10:01:45;4.55;;;1.83;;
19554;SDS011;9924;50.828;6.440;2023-07-31T10:04:12;2.85;;;1.73;;
19554;SDS011;9924;50.828;6.440;2023-07-31T10:06:39;2.47;;;1.73;;
19554;SDS011;9924;50.828;6.440;2023-07-31T10:09:09;9.00;;;1.98;;
19554;SDS011;9924;50.828;6.440;2023-07-31T10:11:43;2.13;;;1.50;;
19554;SDS011;9924;50.828;6.440;2023-07-31T10:14:24;2.97;;;1.90;;
19554;SDS011;9924;50.828;6.440;2023-07-31T10:16:52;3.25;;;1.88;;
19554;SDS011;9924;50.828;6.440;2023-07-31T10:19:19;2.70;;;1.48;;
19554;SDS011;9924;50.828;6.440;2023-07-31T10:21:46;6.38;;;1.60;;
19554;SDS011;9924;50.828;6.440;2023-07-31T10:24:14;3.63;;;1.52;;
19554;SDS011;9924;50.828;6.440;2023-07-31T10:26:40;2.25;;;1.40;;
19554;SDS011;9924;50.828;6.440;2023-07-31T10:29:10;3.58;;;1.27;;
19554;SDS011;9924;50.828;6.440;2023-07-31T10:31:37;2.42;;;1.45;;
19554;SDS011;9924;50.828;6.440;2023-07-31T10:34:03;2.70;;;1.40;;
19554;SDS011;9924;50.828;6.440;2023-07-31T10:36:31;1.83;;;0.98;;
19554;SDS011;9924;50.828;6.440;2023-07-31T10:38:56;2.05;;;1.30;;
19554;SDS011;9924;50.828;6.440;2023-07-31T10:41:28;2.10;;;0.90;;
19554;SDS011;9924;50.828;6.440;2023-07-31T10:43:59;3.40;;;0.95;;
19554;SDS011;9924;50.828;6.440;2023-07-31T10:46:27;3.50;;;0.93;;
19554;SDS011;9924;50.828;6.440;2023-07-31T10:49:01;2.08;;;1.10;;
19554;SDS011;9924;50.828;6.440;2023-07-31T10:51:33;2.70;;;1.15;;
19554;SDS011;9924;50.828;6.440;2023-07-31T10:54:12;1.42;;;0.88;;
19554;SDS011;9924;50.828;6.440;2023-07-31T10:56:40;1.48;;;0.75;;
19554;SDS011;9924;50.828;6.440;2023-07-31T10:59:15;1.15;;;0.85;;
19554;SDS011;9924;50.828;6.440;2023-07-31T11:01:55;1.30;;;0.60;;
19554;SDS011;9924;50.828;6.440;2023-07-31T11:04:27;1.98;;;0.82;;
19554;SDS011;9924;50.828;6.440;2023-07-31T11:06:55;1.38;;;1.15;;
19554;SDS011;9924;50.828;6.440;2023-07-31T11:09:22;1.30;;;0.80;;
19554;SDS011;9924;50.828;6.440;2023-07-31T11:11:48;1.13;;;0.90;;
19554;SDS011;9924;50.828;6.440;2023-07-31T11:14:16;2.95;;;0.90;;
19554;SDS011;9924;50.828;6.440;2023-07-31T11:16:42;1.65;;;0.75;;
19554;SDS011;9924;50.828;6.440;2023-07-31T11:19:08;1.25;;;0.70;;
19554;SDS011;9924;50.828;6.440;2023-07-31T11:21:34;0.95;;;0.70;;
19554;SDS011;9924;50.828;6.440;2023-07-31T11:24:01;1.27;;;0.73;;
19554;SDS011;9924;50.828;6.440;2023-07-31T11:26:27;3.30;;;1.00;;
19554;SDS011;9924;50.828;6.440;2023-07-31T11:28:55;1.00;;;0.70;;
19554;SDS011;9924;50.828;6.440;2023-07-31T11:31:21;1.42;;;0.90;;
19554;SDS011;9924;50.828;6.440;2023-07-31T11:33:47;1.83;;;1.10;;
19554;SDS011;9924;50.828;6.440;2023-07-31T11:36:20;2.33;;;1.02;;
19554;SDS011;9924;50.828;6.440;2023-07-31T11:38:46;2.03;;;1.05;;
19554;SDS011;9924;50.828;6.440;2023-07-31T11:41:16;3.33;;;1.35;;
19554;SDS011;9924;50.828;6.440;2023-07-31T11:43:41;1.92;;;1.25;;
19554;SDS011;9924;50.828;6.440;2023-07-31T11:46:07;1.70;;;1.13;;
19554;SDS011;9924;50.828;6.440;2023-07-31T11:48:35;1.52;;;1.10;;
19554;SDS011;9924;50.828;6.440;2023-07-31T11:51:04;3.55;;;1.25;;
19554;SDS011;9924;50.828;6.440;2023-07-31T11:53:53;2.10;;;1.25;;
19554;SDS011;9924;50.828;6.440;2023-07-31T11:56:21;3.90;;;1.83;;
19554;SDS011;9924;50.828;6.440;2023-07-31T11:58:49;2.20;;;1.70;;
19554;SDS011;9924;50.828;6.440;2023-07-31T12:01:18;3.80;;;1.48;;
19554;SDS011;9924;50.828;6.440;2023-07-31T12:03:46;2.47;;;1.88;;
19554;SDS011;9924;50.828;6.440;2023-07-31T12:06:12;12.38;;;2.05;;
19554;SDS011;9924;50.828;6.440;2023-07-31T12:08:38;2.20;;;1.48;;
19554;SDS011;9924;50.828;6.440;2023-07-31T12:11:04;2.53;;;1.48;;
19554;SDS011;9924;50.828;6.440;2023-07-31T12:13:32;3.47;;;1.77;;
19554;SDS011;9924;50.828;6.440;2023-07-31T12:16:01;4.10;;;1.83;;
19554;SDS011;9924;50.828;6.440;2023-07-31T12:18:32;3.08;;;2.10;;
19554;SDS011;9924;50.828;6.440;2023-07-31T12:21:01;4.55;;;2.30;;
19554;SDS011;9924;50.828;6.440;2023-07-31T12:23:29;5.80;;;2.45;;
19554;SDS011;9924;50.828;6.440;2023-07-31T12:28:43;4.38;;;2.35;;
19554;SDS011;9924;50.828;6.440;2023-07-31T12:31:20;3.72;;;2.15;;
19554;SDS011;9924;50.828;6.440;2023-07-31T12:33:49;4.97;;;2.40;;
19554;SDS011;9924;50.828;6.440;2023-07-31T12:36:16;4.18;;;2.10;;
19554;SDS011;9924;50.828;6.440;2023-07-31T12:38:45;3.60;;;2.20;;
19554;SDS011;9924;50.828;6.440;2023-07-31T12:41:11;3.08;;;1.92;;
19554;SDS011;9924;50.828;6.440;2023-07-31T12:43:38;3.22;;;2.13;;
19554;SDS011;9924;50.828;6.440;2023-07-31T12:46:05;2.70;;;1.80;;
19554;SDS011;9924;50.828;6.440;2023-07-31T12:48:33;3.65;;;2.28;;
19554;SDS011;9924;50.828;6.440;2023-07-31T12:50:59;4.07;;;2.33;;
19554;SDS011;9924;50.828;6.440;2023-07-31T12:53:24;3.13;;;2.20;;
19554;SDS011;9924;50.828;6.440;2023-07-31T12:55:52;2.35;;;1.52;;
19554;SDS011;9924;50.828;6.440;2023-07-31T12:58:18;3.47;;;1.80;;
19554;SDS011;9924;50.828;6.440;2023-07-31T13:00:44;2.60;;;1.90;;
19554;SDS011;9924;50.828;6.440;2023-07-31T13:03:09;4.00;;;2.20;;
19554;SDS011;9924;50.828;6.440;2023-07-31T13:05:36;2.28;;;1.88;;
19554;SDS011;9924;50.828;6.440;2023-07-31T13:08:02;3.08;;;1.98;;
19554;SDS011;9924;50.828;6.440;2023-07-31T13:10:28;2.05;;;1.48;;
19554;SDS011;9924;50.828;6.440;2023-07-31T13:12:54;2.25;;;1.60;;
19554;SDS011;9924;50.828;6.440;2023-07-31T13:15:22;3.38;;;1.83;;
19554;SDS011;9924;50.828;6.440;2023-07-31T13:17:48;3.78;;;1.92;;
19554;SDS011;9924;50.828;6.440;2023-07-31T13:20:13;5.18;;;1.70;;
19554;SDS011;9924;50.828;6.440;2023-07-31T13:22:39;2.33;;;1.83;;
19554;SDS011;9924;50.828;6.440;2023-07-31T13:25:05;3.22;;;1.92;;
19554;SDS011;9924;50.828;6.440;2023-07-31T13:27:31;3.25;;;1.70;;
19554;SDS011;9924;50.828;6.440;2023-07-31T13:29:57;3.28;;;1.63;;
19554;SDS011;9924;50.828;6.440;2023-07-31T13:32:23;4.70;;;2.17;;
19554;SDS011;9924;50.828;6.440;2023-07-31T13:34:49;4.20;;;1.60;;
19554;SDS011;9924;50.828;6.440;2023-07-31T13:37:15;2.92;;;2.03;;
19554;SDS011;9924;50.828;6.440;2023-07-31T13:39:41;4.38;;;2.10;;
19554;SDS011;9924;50.828;6.440;2023-07-31T13:42:07;2.75;;;2.13;;
19554;SDS011;9924;50.828;6.440;2023-07-31T13:44:36;3.90;;;2.30;;
19554;SDS011;9924;50.828;6.440;2023-07-31T13:47:03;3.40;;;2.17;;
19554;SDS011;9924;50.828;6.440;2023-07-31T13:49:29;3.33;;;2.10;;
19554;SDS011;9924;50.828;6.440;2023-07-31T13:51:56;3.15;;;2.05;;
19554;SDS011;9924;50.828;6.440;2023-07-31T13:54:22;4.20;;;2.65;;
19554;SDS011;9924;50.828;6.440;2023-07-31T13:56:49;4.72;;;2.63;;
19554;SDS011;9924;50.828;6.440;2023-07-31T13:59:15;4.57;;;2.63;;
19554;SDS011;9924;50.828;6.440;2023-07-31T14:01:41;3.97;;;2.63;;
19554;SDS011;9924;50.828;6.440;2023-07-31T14:04:10;7.25;;;3.22;;
19554;SDS011;9924;50.828;6.440;2023-07-31T14:06:37;4.05;;;2.90;;
19554;SDS011;9924;50.828;6.440;2023-07-31T14:09:03;4.65;;;2.83;;
19554;SDS011;9924;50.828;6.440;2023-07-31T14:11:30;4.10;;;2.95;;
19554;SDS011;9924;50.828;6.440;2023-07-31T14:13:56;4.60;;;2.60;;
19554;SDS011;9924;50.828;6.440;2023-07-31T14:16:22;5.43;;;2.88;;
19554;SDS011;9924;50.828;6.440;2023-07-31T14:18:48;4.55;;;2.85;;
19554;SDS011;9924;50.828;6.440;2023-07-31T14:21:14;5.38;;;2.90;;
19554;SDS011;9924;50.828;6.440;2023-07-31T14:23:40;5.38;;;3.25;;
19554;SDS011;9924;50.828;6.440;2023-07-31T14:26:06;3.92;;;3.10;;
19554;SDS011;9924;50.828;6.440;2023-07-31T14:28:32;3.50;;;2.28;;
19554;SDS011;9924;50.828;6.440;2023-07-31T14:30:58;5.88;;;2.67;;
19554;SDS011;9924;50.828;6.440;2023-07-31T14:33:24;3.97;;;2.80;;
19554;SDS011;9924;50.828;6.440;2023-07-31T14:35:50;4.85;;;2.90;;
19554;SDS011;9924;50.828;6.440;2023-07-31T14:38:15;5.38;;;2.88;;
19554;SDS011;9924;50.828;6.440;2023-07-31T14:40:41;7.65;;;2.78;;
19554;SDS011;9924;50.828;6.440;2023-07-31T14:43:07;5.50;;;3.13;;
19554;SDS011;9924;50.828;6.440;2023-07-31T14:45:33;5.53;;;3.20;;
19554;SDS011;9924;50.828;6.440;2023-07-31T14:47:59;4.13;;;2.95;;
19554;SDS011;9924;50.828;6.440;2023-07-31T14:50:26;6.32;;;3.10;;
19554;SDS011;9924;50.828;6.440;2023-07-31T14:52:52;4.75;;;2.97;;
19554;SDS011;9924;50.828;6.440;2023-07-31T14:55:18;6.70;;;3.13;;
19554;SDS011;9924;50.828;6.440;2023-07-31T14:57:49;3.70;;;2.80;;
19554;SDS011;9924;50.828;6.440;2023-07-31T15:00:15;5.90;;;3.40;;
19554;SDS011;9924;50.828;6.440;2023-07-31T15:02:41;5.18;;;2.92;;
19554;SDS011;9924;50.828;6.440;2023-07-31T15:05:07;4.90;;;3.03;;
19554;SDS011;9924;50.828;6.440;2023-07-31T15:07:33;4.50;;;2.85;;
19554;SDS011;9924;50.828;6.440;2023-07-31T15:10:00;5.00;;;2.75;;
19554;SDS011;9924;50.828;6.440;2023-07-31T15:12:27;5.90;;;2.90;;